sensor_id;sensor_type;location;lat;lon;timestamp;temperature;humidity
43810;DHT22;29440;48.208;11.162;2023-12-29T00:01:44;7.90;99.90
43810;DHT22;29440;48.208;11.162;2023-12-29T00:04:10;8.00;99.90
43810;DHT22;29440;48.208;11.162;2023-12-29T00:06:40;7.80;99.90
43810;DHT22;29440;48.208;11.162;2023-12-29T00:09:06;7.90;99.90
43810;DHT22;29440;48.208;11.162;2023-12-29T00:11:32;7.90;99.90
43810;DHT22;29440;48.208;11.162;2023-12-29T00:13:58;7.90;99.90
43810;DHT22;29440;48.208;11.162;2023-12-29T00:16:24;7.90;99.90
43810;DHT22;29440;48.208;11.162;2023-12-29T00:18:49;7.90;99.90
43810;DHT22;29440;48.208;11.162;2023-12-29T00:21:15;8.00;99.90
43810;DHT22;29440;48.208;11.162;2023-12-29T00:23:41;8.00;99.90
43810;DHT22;29440;48.208;11.162;2023-12-29T00:26:07;8.00;99.90
43810;DHT22;29440;48.208;11.162;2023-12-29T00:28:33;8.00;99.90
43810;DHT22;29440;48.208;11.162;2023-12-29T00:31:01;8.00;99.90
43810;DHT22;29440;48.208;11.162;2023-12-29T00:33:26;8.00;99.90
43810;DHT22;29440;48.208;11.162;2023-12-29T00:35:52;8.00;99.90
43810;DHT22;29440;48.208;11.162;2023-12-29T00:38:17;8.00;99.90
43810;DHT22;29440;48.208;11.162;2023-12-29T00:40:43;8.00;99.90
43810;DHT22;29440;48.208;11.162;2023-12-29T00:43:09;8.00;99.90
43810;DHT22;29440;48.208;11.162;2023-12-29T00:45:34;8.00;99.90
43810;DHT22;29440;48.208;11.162;2023-12-29T00:48:02;8.00;99.90
43810;DHT22;29440;48.208;11.162;2023-12-29T00:50:27;8.00;99.90
43810;DHT22;29440;48.208;11.162;2023-12-29T00:52:53;8.00;99.90
43810;DHT22;29440;48.208;11.162;2023-12-29T00:55:19;8.00;99.90
43810;DHT22;29440;48.208;11.162;2023-12-29T00:57:45;8.00;99.90
43810;DHT22;29440;48.208;11.162;2023-12-29T01:00:11;8.00;99.90
43810;DHT22;29440;48.208;11.162;2023-12-29T01:02:38;8.10;99.90
43810;DHT22;29440;48.208;11.162;2023-12-29T01:05:04;8.10;99.90
43810;DHT22;29440;48.208;11.162;2023-12-29T01:07:29;8.10;99.90
43810;DHT22;29440;48.208;11.162;2023-12-29T01:09:55;8.10;99.90
43810;DHT22;29440;48.208;11.162;2023-12-29T01:12:21;8.10;99.90
43810;DHT22;29440;48.208;11.162;2023-12-29T01:14:46;8.10;99.90
43810;DHT22;29440;48.208;11.162;2023-12-29T01:17:12;8.10;99.90
43810;DHT22;29440;48.208;11.162;2023-12-29T01:19:38;8.10;99.90
43810;DHT22;29440;48.208;11.162;2023-12-29T01:22:03;8.10;99.90
43810;DHT22;29440;48.208;11.162;2023-12-29T01:24:30;8.10;99.90
43810;DHT22;29440;48.208;11.162;2023-12-29T01:26:56;8.10;99.90
43810;DHT22;29440;48.208;11.162;2023-12-29T01:29:21;8.10;99.90
43810;DHT22;29440;48.208;11.162;2023-12-29T01:31:47;8.00;99.90
43810;DHT22;29440;48.208;11.162;2023-12-29T01:34:13;8.10;99.90
43810;DHT22;29440;48.208;11.162;2023-12-29T01:36:38;8.10;99.90
43810;DHT22;29440;48.208;11.162;2023-12-29T01:39:04;8.10;99.90
43810;DHT22;29440;48.208;11.162;2023-12-29T01:41:30;8.10;99.90
43810;DHT22;29440;48.208;11.162;2023-12-29T01:46:22;8.10;99.90
43810;DHT22;29440;48.208;11.162;2023-12-29T01:48:48;8.10;99.90
43810;DHT22;29440;48.208;11.162;2023-12-29T01:51:15;8.10;99.90
43810;DHT22;29440;48.208;11.162;2023-12-29T01:53:41;8.20;99.90
43810;DHT22;29440;48.208;11.162;2023-12-29T01:56:08;8.10;99.90
43810;DHT22;29440;48.208;11.162;2023-12-29T01:58:34;8.10;99.90
43810;DHT22;29440;48.208;11.162;2023-12-29T02:01:01;8.00;99.90
43810;DHT22;29440;48.208;11.162;2023-12-29T02:03:27;8.00;99.90
43810;DHT22;29440;48.208;11.162;2023-12-29T02:05:55;8.00;99.90
43810;DHT22;29440;48.208;11.162;2023-12-29T02:08:22;8.00;99.90
43810;DHT22;29440;48.208;11.162;2023-12-29T02:10:48;8.00;99.90
43810;DHT22;29440;48.208;11.162;2023-12-29T02:13:14;7.90;99.90
43810;DHT22;29440;48.208;11.162;2023-12-29T02:15:40;7.90;99.90
43810;DHT22;29440;48.208;11.162;2023-12-29T02:18:07;7.90;99.90
43810;DHT22;29440;48.208;11.162;2023-12-29T02:20:35;7.80;99.90
43810;DHT22;29440;48.208;11.162;2023-12-29T02:23:02;7.80;99.90
43810;DHT22;29440;48.208;11.162;2023-12-29T02:25:28;7.80;99.90
43810;DHT22;29440;48.208;11.162;2023-12-29T02:28:19;7.70;99.90
43810;DHT22;29440;48.208;11.162;2023-12-29T02:33:21;7.70;99.90
43810;DHT22;29440;48.208;11.162;2023-12-29T02:35:52;7.70;99.90
43810;DHT22;29440;48.208;11.162;2023-12-29T02:38:18;7.70;99.90
43810;DHT22;29440;48.208;11.162;2023-12-29T02:40:44;7.70;99.90
43810;DHT22;29440;48.208;11.162;2023-12-29T02:43:09;7.70;99.90
43810;DHT22;29440;48.208;11.162;2023-12-29T02:45:35;7.70;99.90
43810;DHT22;29440;48.208;11.162;2023-12-29T02:48:01;7.80;99.90
43810;DHT22;29440;48.208;11.162;2023-12-29T02:50:27;7.80;99.90
43810;DHT22;29440;48.208;11.162;2023-12-29T02:52:52;7.80;99.90
43810;DHT22;29440;48.208;11.162;2023-12-29T02:55:18;7.90;99.90
43810;DHT22;29440;48.208;11.162;2023-12-29T02:57:44;7.90;99.90
43810;DHT22;29440;48.208;11.162;2023-12-29T03:00:10;7.90;99.90
43810;DHT22;29440;48.208;11.162;2023-12-29T03:02:36;7.90;99.90
43810;DHT22;29440;48.208;11.162;2023-12-29T03:05:01;7.90;99.90
43810;DHT22;29440;48.208;11.162;2023-12-29T03:07:27;7.90;99.90
43810;DHT22;29440;48.208;11.162;2023-12-29T03:09:53;7.90;99.90
43810;DHT22;29440;48.208;11.162;2023-12-29T03:12:19;7.90;99.90
43810;DHT22;29440;48.208;11.162;2023-12-29T03:14:44;7.80;99.90
43810;DHT22;29440;48.208;11.162;2023-12-29T03:17:12;7.80;99.90
43810;DHT22;29440;48.208;11.162;2023-12-29T03:19:38;7.80;99.90
43810;DHT22;29440;48.208;11.162;2023-12-29T03:22:04;7.80;99.90
43810;DHT22;29440;48.208;11.162;2023-12-29T03:24:30;7.80;99.90
43810;DHT22;29440;48.208;11.162;2023-12-29T03:26:56;7.70;99.90
43810;DHT22;29440;48.208;11.162;2023-12-29T03:29:22;7.80;99.90
43810;DHT22;29440;48.208;11.162;2023-12-29T03:31:47;7.70;99.90
43810;DHT22;29440;48.208;11.162;2023-12-29T03:34:14;7.70;99.90
43810;DHT22;29440;48.208;11.162;2023-12-29T03:36:39;7.80;99.90
43810;DHT22;29440;48.208;11.162;2023-12-29T03:39:05;7.80;99.90
43810;DHT22;29440;48.208;11.162;2023-12-29T03:41:31;7.80;99.90
43810;DHT22;29440;48.208;11.162;2023-12-29T03:43:57;7.80;99.90
43810;DHT22;29440;48.208;11.162;2023-12-29T03:46:24;7.90;99.90
43810;DHT22;29440;48.208;11.162;2023-12-29T03:48:51;7.90;99.90
43810;DHT22;29440;48.208;11.162;2023-12-29T03:51:18;8.00;99.90
43810;DHT22;29440;48.208;11.162;2023-12-29T03:53:44;8.00;99.90
43810;DHT22;29440;48.208;11.162;2023-12-29T03:56:15;8.10;99.90
43810;DHT22;29440;48.208;11.162;2023-12-29T03:58:45;8.10;99.90
43810;DHT22;29440;48.208;11.162;2023-12-29T04:01:15;8.20;99.90
43810;DHT22;29440;48.208;11.162;2023-12-29T04:03:41;8.30;99.90
43810;DHT22;29440;48.208;11.162;2023-12-29T04:06:07;8.20;99.90
43810;DHT22;29440;48.208;11.162;2023-12-29T04:08:36;8.40;99.90
43810;DHT22;29440;48.208;11.162;2023-12-29T04:11:03;8.30;99.90
43810;DHT22;29440;48.208;11.162;2023-12-29T04:13:29;8.30;99.90
43810;DHT22;29440;48.208;11.162;2023-12-29T04:15:55;8.40;99.90
43810;DHT22;29440;48.208;11.162;2023-12-29T04:18:23;8.30;99.90
43810;DHT22;29440;48.208;11.162;2023-12-29T04:20:49;8.30;99.90
43810;DHT22;29440;48.208;11.162;2023-12-29T04:23:15;8.40;99.90
43810;DHT22;29440;48.208;11.162;2023-12-29T04:25:41;8.30;99.90
43810;DHT22;29440;48.208;11.162;2023-12-29T04:28:08;8.30;99.90
43810;DHT22;29440;48.208;11.162;2023-12-29T04:30:34;8.40;99.90
43810;DHT22;29440;48.208;11.162;2023-12-29T04:33:00;8.40;99.90
43810;DHT22;29440;48.208;11.162;2023-12-29T04:35:26;8.40;99.90
43810;DHT22;29440;48.208;11.162;2023-12-29T04:37:51;8.40;99.90
43810;DHT22;29440;48.208;11.162;2023-12-29T04:40:18;8.40;99.90
43810;DHT22;29440;48.208;11.162;2023-12-29T04:42:43;8.40;99.90
43810;DHT22;29440;48.208;11.162;2023-12-29T04:45:09;8.40;99.90
43810;DHT22;29440;48.208;11.162;2023-12-29T04:47:35;8.50;99.90
43810;DHT22;29440;48.208;11.162;2023-12-29T04:50:01;8.40;99.90
43810;DHT22;29440;48.208;11.162;2023-12-29T04:52:27;8.40;99.90
43810;DHT22;29440;48.208;11.162;2023-12-29T04:54:53;8.40;99.90
43810;DHT22;29440;48.208;11.162;2023-12-29T04:57:18;8.40;99.90
43810;DHT22;29440;48.208;11.162;2023-12-29T04:59:44;8.40;99.90
43810;DHT22;29440;48.208;11.162;2023-12-29T05:02:09;8.40;99.90
43810;DHT22;29440;48.208;11.162;2023-12-29T05:04:35;8.40;99.90
43810;DHT22;29440;48.208;11.162;2023-12-29T05:07:02;8.40;99.90
43810;DHT22;29440;48.208;11.162;2023-12-29T05:09:27;8.40;99.90
43810;DHT22;29440;48.208;11.162;2023-12-29T05:11:53;8.30;99.90
43810;DHT22;29440;48.208;11.162;2023-12-29T05:14:18;8.30;99.90
43810;DHT22;29440;48.208;11.162;2023-12-29T05:16:44;8.30;99.90
43810;DHT22;29440;48.208;11.162;2023-12-29T05:19:10;8.30;99.90
43810;DHT22;29440;48.208;11.162;2023-12-29T05:21:35;8.30;99.90
43810;DHT22;29440;48.208;11.162;2023-12-29T05:24:01;8.30;99.90
43810;DHT22;29440;48.208;11.162;2023-12-29T05:26:27;8.30;99.90
43810;DHT22;29440;48.208;11.162;2023-12-29T05:28:52;8.30;99.90
43810;DHT22;29440;48.208;11.162;2023-12-29T05:31:18;8.30;99.90
43810;DHT22;29440;48.208;11.162;2023-12-29T05:33:46;8.30;99.90
43810;DHT22;29440;48.208;11.162;2023-12-29T05:36:12;8.30;99.90
43810;DHT22;29440;48.208;11.162;2023-12-29T05:38:38;8.30;99.90
43810;DHT22;29440;48.208;11.162;2023-12-29T05:41:04;8.30;99.90
43810;DHT22;29440;48.208;11.162;2023-12-29T05:43:33;8.30;99.90
43810;DHT22;29440;48.208;11.162;2023-12-29T05:46:00;8.30;99.90
43810;DHT22;29440;48.208;11.162;2023-12-29T05:48:26;8.40;99.90
43810;DHT22;29440;48.208;11.162;2023-12-29T05:50:51;8.40;99.90
43810;DHT22;29440;48.208;11.162;2023-12-29T05:53:17;8.40;99.90
43810;DHT22;29440;48.208;11.162;2023-12-29T05:55:43;8.40;99.90
43810;DHT22;29440;48.208;11.162;2023-12-29T05:58:09;8.40;99.90
43810;DHT22;29440;48.208;11.162;2023-12-29T06:00:36;8.40;99.90
43810;DHT22;29440;48.208;11.162;2023-12-29T06:03:02;8.40;99.90
43810;DHT22;29440;48.208;11.162;2023-12-29T06:05:29;8.40;99.90
43810;DHT22;29440;48.208;11.162;2023-12-29T06:07:56;8.50;99.90
43810;DHT22;29440;48.208;11.162;2023-12-29T06:10:22;8.50;99.90
43810;DHT22;29440;48.208;11.162;2023-12-29T06:12:48;8.60;99.90
43810;DHT22;29440;48.208;11.162;2023-12-29T06:15:13;8.60;99.90
43810;DHT22;29440;48.208;11.162;2023-12-29T06:17:40;8.70;99.90
43810;DHT22;29440;48.208;11.162;2023-12-29T06:20:07;8.80;99.90
43810;DHT22;29440;48.208;11.162;2023-12-29T06:22:32;8.80;99.90
43810;DHT22;29440;48.208;11.162;2023-12-29T06:24:58;8.90;99.90
43810;DHT22;29440;48.208;11.162;2023-12-29T06:27:25;8.80;99.90
43810;DHT22;29440;48.208;11.162;2023-12-29T06:29:50;8.90;99.90
43810;DHT22;29440;48.208;11.162;2023-12-29T06:32:16;8.90;99.90
43810;DHT22;29440;48.208;11.162;2023-12-29T06:34:42;8.90;99.90
43810;DHT22;29440;48.208;11.162;2023-12-29T06:37:07;9.00;99.90
43810;DHT22;29440;48.208;11.162;2023-12-29T06:39:34;9.10;99.90
43810;DHT22;29440;48.208;11.162;2023-12-29T06:41:59;9.00;99.90
43810;DHT22;29440;48.208;11.162;2023-12-29T06:44:25;9.00;99.90
43810;DHT22;29440;48.208;11.162;2023-12-29T06:46:51;9.00;99.90
43810;DHT22;29440;48.208;11.162;2023-12-29T06:49:17;9.10;99.90
43810;DHT22;29440;48.208;11.162;2023-12-29T06:51:42;9.10;99.90
43810;DHT22;29440;48.208;11.162;2023-12-29T06:54:08;9.10;99.90
43810;DHT22;29440;48.208;11.162;2023-12-29T06:56:34;9.10;99.90
43810;DHT22;29440;48.208;11.162;2023-12-29T06:58:59;9.10;99.90
43810;DHT22;29440;48.208;11.162;2023-12-29T07:01:25;9.10;99.90
43810;DHT22;29440;48.208;11.162;2023-12-29T07:03:50;9.20;99.90
43810;DHT22;29440;48.208;11.162;2023-12-29T07:06:16;9.10;99.90
43810;DHT22;29440;48.208;11.162;2023-12-29T07:08:42;9.20;99.90
43810;DHT22;29440;48.208;11.162;2023-12-29T07:11:11;9.20;99.90
43810;DHT22;29440;48.208;11.162;2023-12-29T07:13:37;9.20;99.90
43810;DHT22;29440;48.208;11.162;2023-12-29T07:16:03;9.20;99.90
43810;DHT22;29440;48.208;11.162;2023-12-29T07:18:29;9.20;99.90
43810;DHT22;29440;48.208;11.162;2023-12-29T07:20:54;9.20;99.90
43810;DHT22;29440;48.208;11.162;2023-12-29T07:23:20;9.20;99.90
43810;DHT22;29440;48.208;11.162;2023-12-29T07:25:47;9.20;99.90
43810;DHT22;29440;48.208;11.162;2023-12-29T07:28:13;9.20;99.90
43810;DHT22;29440;48.208;11.162;2023-12-29T07:30:39;9.20;99.90
43810;DHT22;29440;48.208;11.162;2023-12-29T07:33:05;9.20;99.90
43810;DHT22;29440;48.208;11.162;2023-12-29T07:35:31;9.30;99.90
43810;DHT22;29440;48.208;11.162;2023-12-29T07:37:56;9.30;99.90
43810;DHT22;29440;48.208;11.162;2023-12-29T07:40:22;9.30;99.90
43810;DHT22;29440;48.208;11.162;2023-12-29T07:42:48;9.40;99.90
43810;DHT22;29440;48.208;11.162;2023-12-29T07:45:16;9.40;99.90
43810;DHT22;29440;48.208;11.162;2023-12-29T07:47:42;9.40;99.90
43810;DHT22;29440;48.208;11.162;2023-12-29T07:50:08;9.40;99.90
43810;DHT22;29440;48.208;11.162;2023-12-29T07:52:34;9.40;99.90
43810;DHT22;29440;48.208;11.162;2023-12-29T07:54:59;9.40;99.90
43810;DHT22;29440;48.208;11.162;2023-12-29T07:57:25;9.30;99.90
43810;DHT22;29440;48.208;11.162;2023-12-29T07:59:51;9.40;99.90
43810;DHT22;29440;48.208;11.162;2023-12-29T08:02:16;9.30;99.90
43810;DHT22;29440;48.208;11.162;2023-12-29T08:04:42;9.30;99.90
43810;DHT22;29440;48.208;11.162;2023-12-29T08:07:08;9.30;99.90
43810;DHT22;29440;48.208;11.162;2023-12-29T08:09:33;9.30;99.90
43810;DHT22;29440;48.208;11.162;2023-12-29T08:11:59;9.30;99.90
43810;DHT22;29440;48.208;11.162;2023-12-29T08:14:26;9.30;99.90
43810;DHT22;29440;48.208;11.162;2023-12-29T08:16:52;9.30;99.90
43810;DHT22;29440;48.208;11.162;2023-12-29T08:19:18;9.30;99.90
43810;DHT22;29440;48.208;11.162;2023-12-29T08:21:44;9.40;99.90
43810;DHT22;29440;48.208;11.162;2023-12-29T08:24:09;9.40;99.90
43810;DHT22;29440;48.208;11.162;2023-12-29T08:26:44;9.60;99.90
43810;DHT22;29440;48.208;11.162;2023-12-29T08:29:11;9.80;99.90
43810;DHT22;29440;48.208;11.162;2023-12-29T08:31:36;10.10;99.90
43810;DHT22;29440;48.208;11.162;2023-12-29T08:34:02;10.30;99.90
43810;DHT22;29440;48.208;11.162;2023-12-29T08:36:27;10.50;99.90
43810;DHT22;29440;48.208;11.162;2023-12-29T08:38:53;10.80;99.90
43810;DHT22;29440;48.208;11.162;2023-12-29T08:41:19;11.00;99.90
43810;DHT22;29440;48.208;11.162;2023-12-29T08:43:45;11.10;99.90
43810;DHT22;29440;48.208;11.162;2023-12-29T08:46:11;11.20;99.90
43810;DHT22;29440;48.208;11.162;2023-12-29T08:48:37;11.20;99.90
43810;DHT22;29440;48.208;11.162;2023-12-29T08:51:02;11.10;99.90
43810;DHT22;29440;48.208;11.162;2023-12-29T08:53:28;11.10;99.90
43810;DHT22;29440;48.208;11.162;2023-12-29T08:55:59;11.10;99.90
43810;DHT22;29440;48.208;11.162;2023-12-29T08:58:24;11.20;99.90
43810;DHT22;29440;48.208;11.162;2023-12-29T09:00:50;11.20;99.90
43810;DHT22;29440;48.208;11.162;2023-12-29T09:03:15;11.30;99.90
43810;DHT22;29440;48.208;11.162;2023-12-29T09:05:41;11.20;99.90
43810;DHT22;29440;48.208;11.162;2023-12-29T09:08:07;11.10;99.90
43810;DHT22;29440;48.208;11.162;2023-12-29T09:10:32;11.10;99.90
43810;DHT22;29440;48.208;11.162;2023-12-29T09:12:58;11.20;99.90
43810;DHT22;29440;48.208;11.162;2023-12-29T09:15:24;11.30;99.90
43810;DHT22;29440;48.208;11.162;2023-12-29T09:17:50;11.20;99.90
43810;DHT22;29440;48.208;11.162;2023-12-29T09:20:16;11.20;99.90
43810;DHT22;29440;48.208;11.162;2023-12-29T09:22:42;11.20;99.90
43810;DHT22;29440;48.208;11.162;2023-12-29T09:25:08;11.20;99.90
43810;DHT22;29440;48.208;11.162;2023-12-29T09:27:33;11.10;99.90
43810;DHT22;29440;48.208;11.162;2023-12-29T09:29:59;11.10;99.90
43810;DHT22;29440;48.208;11.162;2023-12-29T09:32:25;11.10;99.90
43810;DHT22;29440;48.208;11.162;2023-12-29T09:34:50;11.00;99.90
43810;DHT22;29440;48.208;11.162;2023-12-29T09:37:17;11.00;99.90
43810;DHT22;29440;48.208;11.162;2023-12-29T09:39:43;11.10;99.90
43810;DHT22;29440;48.208;11.162;2023-12-29T09:42:09;11.10;99.90
43810;DHT22;29440;48.208;11.162;2023-12-29T09:44:38;11.10;99.90
43810;DHT22;29440;48.208;11.162;2023-12-29T09:47:06;11.00;99.90
43810;DHT22;29440;48.208;11.162;2023-12-29T09:49:37;11.00;99.90
43810;DHT22;29440;48.208;11.162;2023-12-29T09:52:07;11.00;99.90
43810;DHT22;29440;48.208;11.162;2023-12-29T09:54:33;11.00;99.90
43810;DHT22;29440;48.208;11.162;2023-12-29T09:56:59;10.90;99.90
43810;DHT22;29440;48.208;11.162;2023-12-29T09:59:26;10.90;99.90
43810;DHT22;29440;48.208;11.162;2023-12-29T10:01:53;10.90;99.90
43810;DHT22;29440;48.208;11.162;2023-12-29T10:04:19;11.00;99.90
43810;DHT22;29440;48.208;11.162;2023-12-29T10:06:46;10.90;99.90
43810;DHT22;29440;48.208;11.162;2023-12-29T10:09:15;10.90;99.90
43810;DHT22;29440;48.208;11.162;2023-12-29T10:11:46;10.90;99.90
43810;DHT22;29440;48.208;11.162;2023-12-29T10:14:46;10.90;99.90
43810;DHT22;29440;48.208;11.162;2023-12-29T10:17:24;10.90;99.90
43810;DHT22;29440;48.208;11.162;2023-12-29T10:20:06;10.90;99.90
43810;DHT22;29440;48.208;11.162;2023-12-29T10:25:32;10.80;99.90
43810;DHT22;29440;48.208;11.162;2023-12-29T10:27:59;10.80;99.90
43810;DHT22;29440;48.208;11.162;2023-12-29T10:30:24;10.80;99.90
43810;DHT22;29440;48.208;11.162;2023-12-29T10:32:51;10.70;99.90
43810;DHT22;29440;48.208;11.162;2023-12-29T10:35:17;10.70;99.90
43810;DHT22;29440;48.208;11.162;2023-12-29T10:37:43;10.70;99.90
43810;DHT22;29440;48.208;11.162;2023-12-29T10:40:09;10.70;99.90
43810;DHT22;29440;48.208;11.162;2023-12-29T10:42:52;10.70;99.90
43810;DHT22;29440;48.208;11.162;2023-12-29T10:45:17;10.60;99.90
43810;DHT22;29440;48.208;11.162;2023-12-29T10:47:46;10.60;99.90
43810;DHT22;29440;48.208;11.162;2023-12-29T10:50:12;10.60;99.90
43810;DHT22;29440;48.208;11.162;2023-12-29T10:52:38;10.60;99.90
43810;DHT22;29440;48.208;11.162;2023-12-29T10:55:06;10.70;99.90
43810;DHT22;29440;48.208;11.162;2023-12-29T10:57:32;10.70;99.90
43810;DHT22;29440;48.208;11.162;2023-12-29T10:59:58;10.80;99.90
43810;DHT22;29440;48.208;11.162;2023-12-29T11:02:28;10.70;99.90
43810;DHT22;29440;48.208;11.162;2023-12-29T11:05:08;10.80;99.90
43810;DHT22;29440;48.208;11.162;2023-12-29T11:07:38;10.90;99.90
43810;DHT22;29440;48.208;11.162;2023-12-29T11:10:06;10.90;99.90
43810;DHT22;29440;48.208;11.162;2023-12-29T11:12:36;11.00;99.90
43810;DHT22;29440;48.208;11.162;2023-12-29T11:15:04;11.00;99.90
43810;DHT22;29440;48.208;11.162;2023-12-29T11:17:31;11.00;99.90
43810;DHT22;29440;48.208;11.162;2023-12-29T11:19:59;11.10;99.90
43810;DHT22;29440;48.208;11.162;2023-12-29T11:22:28;11.10;99.90
43810;DHT22;29440;48.208;11.162;2023-12-29T11:24:54;11.10;99.90
43810;DHT22;29440;48.208;11.162;2023-12-29T11:27:21;11.10;99.90
43810;DHT22;29440;48.208;11.162;2023-12-29T11:29:47;11.10;99.90
43810;DHT22;29440;48.208;11.162;2023-12-29T11:32:20;11.20;99.90
43810;DHT22;29440;48.208;11.162;2023-12-29T11:34:49;11.10;99.90
43810;DHT22;29440;48.208;11.162;2023-12-29T11:40:44;11.20;99.90
43810;DHT22;29440;48.208;11.162;2023-12-29T11:43:16;11.20;99.90
43810;DHT22;29440;48.208;11.162;2023-12-29T11:45:42;11.20;99.90
43810;DHT22;29440;48.208;11.162;2023-12-29T11:48:08;11.20;99.90
43810;DHT22;29440;48.208;11.162;2023-12-29T11:50:35;11.30;99.90
43810;DHT22;29440;48.208;11.162;2023-12-29T11:53:02;11.30;99.90
43810;DHT22;29440;48.208;11.162;2023-12-29T11:55:35;11.30;99.90
43810;DHT22;29440;48.208;11.162;2023-12-29T11:58:02;11.20;99.90
43810;DHT22;29440;48.208;11.162;2023-12-29T12:00:46;11.30;99.90
43810;DHT22;29440;48.208;11.162;2023-12-29T12:03:18;11.40;99.90
43810;DHT22;29440;48.208;11.162;2023-12-29T12:05:50;11.40;99.90
43810;DHT22;29440;48.208;11.162;2023-12-29T12:10:57;11.30;99.90
43810;DHT22;29440;48.208;11.162;2023-12-29T12:13:46;11.30;99.90
43810;DHT22;29440;48.208;11.162;2023-12-29T12:16:46;11.30;99.90
43810;DHT22;29440;48.208;11.162;2023-12-29T12:19:13;11.30;99.90
43810;DHT22;29440;48.208;11.162;2023-12-29T12:21:39;11.30;99.90
43810;DHT22;29440;48.208;11.162;2023-12-29T12:24:05;11.30;99.90
43810;DHT22;29440;48.208;11.162;2023-12-29T12:26:31;11.30;99.90
43810;DHT22;29440;48.208;11.162;2023-12-29T12:28:58;11.30;99.90
43810;DHT22;29440;48.208;11.162;2023-12-29T12:31:24;11.20;99.90
43810;DHT22;29440;48.208;11.162;2023-12-29T12:33:54;11.20;99.90
43810;DHT22;29440;48.208;11.162;2023-12-29T12:36:20;11.20;99.90
43810;DHT22;29440;48.208;11.162;2023-12-29T12:38:52;11.20;99.90
43810;DHT22;29440;48.208;11.162;2023-12-29T12:41:19;11.20;99.90
43810;DHT22;29440;48.208;11.162;2023-12-29T12:43:56;11.10;99.90
43810;DHT22;29440;48.208;11.162;2023-12-29T12:46:23;11.30;99.90
43810;DHT22;29440;48.208;11.162;2023-12-29T12:48:52;11.10;99.90
43810;DHT22;29440;48.208;11.162;2023-12-29T12:51:19;11.10;99.90
43810;DHT22;29440;48.208;11.162;2023-12-29T12:53:46;11.10;99.90
43810;DHT22;29440;48.208;11.162;2023-12-29T12:56:14;11.10;99.90
43810;DHT22;29440;48.208;11.162;2023-12-29T12:58:40;11.10;99.90
43810;DHT22;29440;48.208;11.162;2023-12-29T13:01:06;11.20;99.90
43810;DHT22;29440;48.208;11.162;2023-12-29T13:03:32;11.00;99.90
43810;DHT22;29440;48.208;11.162;2023-12-29T13:05:59;11.00;99.90
43810;DHT22;29440;48.208;11.162;2023-12-29T13:08:25;11.00;99.90
43810;DHT22;29440;48.208;11.162;2023-12-29T13:10:52;11.00;99.90
43810;DHT22;29440;48.208;11.162;2023-12-29T13:13:18;11.00;99.90
43810;DHT22;29440;48.208;11.162;2023-12-29T13:18:12;11.00;99.90
43810;DHT22;29440;48.208;11.162;2023-12-29T13:20:46;10.90;99.90
43810;DHT22;29440;48.208;11.162;2023-12-29T13:23:13;11.00;99.90
43810;DHT22;29440;48.208;11.162;2023-12-29T13:25:40;10.90;99.90
43810;DHT22;29440;48.208;11.162;2023-12-29T13:28:06;10.90;99.90
43810;DHT22;29440;48.208;11.162;2023-12-29T13:30:32;10.90;99.90
43810;DHT22;29440;48.208;11.162;2023-12-29T13:32:58;10.90;99.90
43810;DHT22;29440;48.208;11.162;2023-12-29T13:35:35;10.80;99.90
43810;DHT22;29440;48.208;11.162;2023-12-29T13:38:09;10.80;99.90
43810;DHT22;29440;48.208;11.162;2023-12-29T13:40:44;10.80;99.90
43810;DHT22;29440;48.208;11.162;2023-12-29T13:43:14;10.80;99.90
43810;DHT22;29440;48.208;11.162;2023-12-29T13:45:42;10.70;99.90
43810;DHT22;29440;48.208;11.162;2023-12-29T13:48:09;10.70;99.90
43810;DHT22;29440;48.208;11.162;2023-12-29T13:50:35;10.70;99.90
43810;DHT22;29440;48.208;11.162;2023-12-29T13:53:01;10.70;99.90
43810;DHT22;29440;48.208;11.162;2023-12-29T13:55:26;10.70;99.90
43810;DHT22;29440;48.208;11.162;2023-12-29T13:57:52;10.80;99.90
43810;DHT22;29440;48.208;11.162;2023-12-29T14:00:23;10.70;99.90
43810;DHT22;29440;48.208;11.162;2023-12-29T14:05:43;10.60;99.90
43810;DHT22;29440;48.208;11.162;2023-12-29T14:08:18;10.60;99.90
43810;DHT22;29440;48.208;11.162;2023-12-29T14:10:46;10.50;99.90
43810;DHT22;29440;48.208;11.162;2023-12-29T14:13:14;10.60;99.90
43810;DHT22;29440;48.208;11.162;2023-12-29T14:15:41;10.60;99.90
43810;DHT22;29440;48.208;11.162;2023-12-29T14:20:58;10.50;99.90
43810;DHT22;29440;48.208;11.162;2023-12-29T14:23:24;10.40;99.90
43810;DHT22;29440;48.208;11.162;2023-12-29T14:25:50;10.40;99.90
43810;DHT22;29440;48.208;11.162;2023-12-29T14:28:16;10.40;99.90
43810;DHT22;29440;48.208;11.162;2023-12-29T14:30:42;10.40;99.90
43810;DHT22;29440;48.208;11.162;2023-12-29T14:33:08;10.40;99.90
43810;DHT22;29440;48.208;11.162;2023-12-29T14:35:34;10.30;99.90
43810;DHT22;29440;48.208;11.162;2023-12-29T14:38:00;10.30;99.90
43810;DHT22;29440;48.208;11.162;2023-12-29T14:40:26;10.30;99.90
43810;DHT22;29440;48.208;11.162;2023-12-29T14:42:52;10.30;99.90
43810;DHT22;29440;48.208;11.162;2023-12-29T14:45:17;10.20;99.90
43810;DHT22;29440;48.208;11.162;2023-12-29T14:47:43;10.20;99.90
43810;DHT22;29440;48.208;11.162;2023-12-29T14:50:11;10.20;99.90
43810;DHT22;29440;48.208;11.162;2023-12-29T14:52:37;10.20;99.90
43810;DHT22;29440;48.208;11.162;2023-12-29T14:55:02;10.10;99.90
43810;DHT22;29440;48.208;11.162;2023-12-29T14:57:28;10.10;99.90
43810;DHT22;29440;48.208;11.162;2023-12-29T14:59:54;10.10;99.90
43810;DHT22;29440;48.208;11.162;2023-12-29T15:02:19;10.10;99.90
43810;DHT22;29440;48.208;11.162;2023-12-29T15:04:45;10.00;99.90
43810;DHT22;29440;48.208;11.162;2023-12-29T15:07:11;10.00;99.90
43810;DHT22;29440;48.208;11.162;2023-12-29T15:09:38;10.00;99.90
43810;DHT22;29440;48.208;11.162;2023-12-29T15:12:04;10.00;99.90
43810;DHT22;29440;48.208;11.162;2023-12-29T15:14:30;10.00;99.90
43810;DHT22;29440;48.208;11.162;2023-12-29T15:16:57;10.00;99.90
43810;DHT22;29440;48.208;11.162;2023-12-29T15:19:22;10.00;99.90
43810;DHT22;29440;48.208;11.162;2023-12-29T15:21:48;9.90;99.90
43810;DHT22;29440;48.208;11.162;2023-12-29T15:24:15;10.00;99.90
43810;DHT22;29440;48.208;11.162;2023-12-29T15:26:41;9.90;99.90
43810;DHT22;29440;48.208;11.162;2023-12-29T15:29:07;9.90;99.90
43810;DHT22;29440;48.208;11.162;2023-12-29T15:31:32;9.90;99.90
43810;DHT22;29440;48.208;11.162;2023-12-29T15:33:58;9.80;99.90
43810;DHT22;29440;48.208;11.162;2023-12-29T15:36:29;9.80;99.90
43810;DHT22;29440;48.208;11.162;2023-12-29T15:38:55;9.80;99.90
43810;DHT22;29440;48.208;11.162;2023-12-29T15:41:21;9.80;99.90
43810;DHT22;29440;48.208;11.162;2023-12-29T15:43:47;9.80;99.90
43810;DHT22;29440;48.208;11.162;2023-12-29T15:46:16;9.80;99.90